createdAt,value
2023-03-27T00:00:15.366Z,45.32
2023-03-27T00:01:19.706Z,45.47
2023-03-27T00:02:24.931Z,45.66
2023-03-27T00:03:28.985Z,45.83
2023-03-27T00:04:32.527Z,45.97
2023-03-27T00:05:44.132Z,46.19
2023-03-27T00:06:49.742Z,46.39
2023-03-27T00:07:52.934Z,46.48
2023-03-27T00:08:59.519Z,46.51
2023-03-27T00:10:02.296Z,46.55
2023-03-27T00:11:07.345Z,46.46
2023-03-27T00:12:11.349Z,46.51
2023-03-27T00:13:15.182Z,46.85
2023-03-27T00:14:17.198Z,46.49
2023-03-27T00:15:20.214Z,46.24
2023-03-27T00:16:24.779Z,46.22
2023-03-27T00:17:26.756Z,46.20
2023-03-27T00:18:34.945Z,46.34
2023-03-27T00:19:39.454Z,46.20
2023-03-27T00:20:42.161Z,46.21
2023-03-27T00:21:44.358Z,46.00
2023-03-27T00:22:53.129Z,45.97
2023-03-27T00:23:55.156Z,46.02
2023-03-27T00:24:59.357Z,45.98
2023-03-27T00:26:02.229Z,46.20
2023-03-27T00:27:12.683Z,46.16
2023-03-27T00:28:15.903Z,46.12
2023-03-27T00:29:23.296Z,46.18
2023-03-27T00:30:26.918Z,46.11
2023-03-27T00:31:30.236Z,46.07
2023-03-27T00:32:41.834Z,46.16
2023-03-27T00:33:48.161Z,46.09
2023-03-27T00:34:52.792Z,46.29
2023-03-27T00:35:54.805Z,46.20
2023-03-27T00:36:58.585Z,46.24
2023-03-27T00:38:00.736Z,46.26
2023-03-27T00:39:04.606Z,46.15
2023-03-27T00:40:09.381Z,46.11
2023-03-27T00:41:11.407Z,46.30
2023-03-27T00:42:15.009Z,46.23
2023-03-27T00:43:26.654Z,46.35
2023-03-27T00:44:29.478Z,46.41
2023-03-27T00:45:31.573Z,46.39
2023-03-27T00:46:42.811Z,46.30
2023-03-27T00:47:46.092Z,46.34
2023-03-27T00:48:50.170Z,46.25
2023-03-27T00:49:52.665Z,46.25
2023-03-27T00:50:54.761Z,46.28
2023-03-27T00:51:57.084Z,46.14
2023-03-27T00:53:03.094Z,46.20
2023-03-27T00:54:05.656Z,46.10
2023-03-27T00:55:10.894Z,46.19
2023-03-27T00:56:14.784Z,46.25
2023-03-27T00:57:17.491Z,46.13
2023-03-27T00:58:25.664Z,46.15
2023-03-27T00:59:29.577Z,46.21
2023-03-27T01:00:31.870Z,46.14
2023-03-27T01:01:34.009Z,46.24
2023-03-27T01:02:36.618Z,46.22
2023-03-27T01:03:38.868Z,46.25
2023-03-27T01:04:41.078Z,46.30
2023-03-27T01:05:43.157Z,46.33
2023-03-27T01:06:45.294Z,46.42
2023-03-27T01:08:01.560Z,46.51
2023-03-27T01:08:51.930Z,46.50
2023-03-27T01:09:54.410Z,46.60
2023-03-27T01:12:28.765Z,46.43
2023-03-27T01:13:52.389Z,46.53
2023-03-27T01:16:35.306Z,46.38
2023-03-27T01:17:56.486Z,46.43
2023-03-27T01:19:33.637Z,46.54
2023-03-27T01:21:03.678Z,46.50
2023-03-27T01:22:38.728Z,46.43
2023-03-27T01:23:59.042Z,46.53
2023-03-27T01:25:27.542Z,46.58
2023-03-27T01:27:02.292Z,46.76
2023-03-27T01:28:24.085Z,46.95
2023-03-27T01:29:30.171Z,46.87
2023-03-27T01:30:39.331Z,47.02
2023-03-27T01:32:03.803Z,47.07
2023-03-27T01:33:09.586Z,46.90
2023-03-27T01:35:45.830Z,47.04
2023-03-27T01:37:08.751Z,47.07
2023-03-27T01:38:31.319Z,46.96
2023-03-27T01:39:45.954Z,46.99
2023-03-27T01:41:13.005Z,47.06
2023-03-27T01:42:21.276Z,47.06
2023-03-27T01:43:51.351Z,46.95
2023-03-27T01:45:03.021Z,46.93
2023-03-27T01:47:47.609Z,46.98
2023-03-27T01:48:55.589Z,47.18
2023-03-27T01:50:01.855Z,47.45
2023-03-27T01:52:32.470Z,47.25
2023-03-27T01:53:37.297Z,47.61
2023-03-27T01:54:44.930Z,47.54
2023-03-27T01:55:50.211Z,47.48
2023-03-27T01:56:59.322Z,47.50
2023-03-27T01:58:16.757Z,47.34
2023-03-27T01:59:20.786Z,47.30
2023-03-27T02:00:23.112Z,47.60
2023-03-27T02:01:28.335Z,47.62
2023-03-27T02:02:31.517Z,47.58
2023-03-27T02:03:36.486Z,47.50
2023-03-27T02:06:03.741Z,47.57
2023-03-27T02:07:09.550Z,47.73
2023-03-27T02:09:34.582Z,47.40
2023-03-27T02:10:39.670Z,47.39
2023-03-27T02:11:46.272Z,47.44
2023-03-27T02:13:01.884Z,47.38
2023-03-27T02:14:06.705Z,47.26
2023-03-27T02:15:23.599Z,47.26
2023-03-27T02:16:21.235Z,47.29
2023-03-27T02:17:23.752Z,47.22
2023-03-27T02:18:34.111Z,47.15
2023-03-27T02:21:01.796Z,47.04
2023-03-27T02:22:04.118Z,47.11
2023-03-27T02:23:08.037Z,47.10
2023-03-27T02:24:10.070Z,47.05
2023-03-27T02:25:31.451Z,47.07
2023-03-27T02:26:35.440Z,47.20
2023-03-27T02:27:43.260Z,47.20
2023-03-27T02:28:55.084Z,47.29
2023-03-27T02:30:17.347Z,47.27
2023-03-27T02:31:55.255Z,47.10
2023-03-27T02:33:13.012Z,47.19
2023-03-27T02:34:20.197Z,47.17
2023-03-27T02:35:59.980Z,47.27
2023-03-27T02:38:52.466Z,47.16
2023-03-27T02:39:58.378Z,47.37
2023-03-27T02:41:16.791Z,47.30
2023-03-27T02:43:50.666Z,47.49
2023-03-27T02:47:41.383Z,47.59
2023-03-27T02:48:47.119Z,47.49
2023-03-27T02:49:54.977Z,47.44
2023-03-27T02:52:22.058Z,47.33
2023-03-27T02:53:25.166Z,47.59
2023-03-27T02:54:30.597Z,47.44
2023-03-27T02:56:57.306Z,47.48
2023-03-27T02:59:33.074Z,47.80
2023-03-27T03:01:48.333Z,47.72
2023-03-27T03:04:20.558Z,47.93
2023-03-27T03:06:51.884Z,47.60
2023-03-27T03:07:53.953Z,47.57
2023-03-27T03:08:58.974Z,47.52
2023-03-27T03:10:01.076Z,47.40
2023-03-27T03:11:08.666Z,47.38
2023-03-27T03:12:10.683Z,49.57
2023-03-27T03:13:16.930Z,51.34
2023-03-27T03:14:21.302Z,53.56
2023-03-27T03:15:23.431Z,53.48
2023-03-27T03:16:26.912Z,52.33
2023-03-27T03:17:30.335Z,51.68
2023-03-27T03:18:32.392Z,52.06
2023-03-27T03:19:34.497Z,52.16
2023-03-27T03:20:37.113Z,53.19
2023-03-27T03:21:40.058Z,53.13
2023-03-27T03:22:43.928Z,53.51
2023-03-27T03:23:58.635Z,54.41
2023-03-27T03:24:53.277Z,54.30
2023-03-27T03:25:57.293Z,53.95
2023-03-27T03:27:02.179Z,53.84
2023-03-27T03:28:05.133Z,53.75
2023-03-27T03:29:07.947Z,53.76
2023-03-27T03:30:16.660Z,53.54
2023-03-27T03:31:18.539Z,53.39
2023-03-27T03:32:21.342Z,53.26
2023-03-27T03:33:25.263Z,53.17
2023-03-27T03:34:27.170Z,53.14
2023-03-27T03:35:29.206Z,53.39
2023-03-27T03:36:32.524Z,53.91
2023-03-27T03:37:34.721Z,53.67
2023-03-27T03:38:37.777Z,53.22
2023-03-27T03:39:42.321Z,52.29
2023-03-27T03:40:44.804Z,52.20
2023-03-27T03:41:47.643Z,52.64
2023-03-27T03:42:50.966Z,52.40
2023-03-27T03:43:54.918Z,52.16
2023-03-27T03:44:57.004Z,51.46
2023-03-27T03:45:59.607Z,51.86
2023-03-27T03:47:01.851Z,52.01
2023-03-27T03:48:04.227Z,52.37
2023-03-27T03:49:06.788Z,52.62
2023-03-27T03:50:10.468Z,52.13
2023-03-27T03:51:13.542Z,52.28
2023-03-27T03:52:15.567Z,52.21
2023-03-27T03:53:19.698Z,52.10
2023-03-27T03:54:22.044Z,51.65
2023-03-27T03:55:24.100Z,51.86
2023-03-27T03:56:27.349Z,51.89
2023-03-27T03:57:29.656Z,52.34
2023-03-27T03:58:36.445Z,52.34
2023-03-27T03:59:41.397Z,51.57
2023-03-27T04:00:57.704Z,51.72
2023-03-27T04:02:04.935Z,51.66
2023-03-27T04:03:09.021Z,51.58
2023-03-27T04:04:11.766Z,51.85
2023-03-27T04:05:24.421Z,51.88
2023-03-27T04:06:27.619Z,51.20
2023-03-27T04:07:31.574Z,49.98
2023-03-27T04:08:35.556Z,50.56
2023-03-27T04:09:37.512Z,50.58
2023-03-27T04:10:45.025Z,49.69
2023-03-27T04:11:54.785Z,49.47
2023-03-27T04:12:59.167Z,49.81
2023-03-27T04:14:08.915Z,50.05
2023-03-27T04:15:13.331Z,49.84
2023-03-27T04:16:34.291Z,50.09
2023-03-27T04:17:39.352Z,50.51
2023-03-27T04:18:43.333Z,50.77
2023-03-27T04:19:48.160Z,50.96
2023-03-27T04:20:50.800Z,50.65
2023-03-27T04:21:54.686Z,50.40
2023-03-27T04:22:57.212Z,50.71
2023-03-27T04:23:59.352Z,50.16
2023-03-27T04:25:07.422Z,50.23
2023-03-27T04:26:10.090Z,50.28
2023-03-27T04:27:14.534Z,50.38
2023-03-27T04:28:18.891Z,50.87
2023-03-27T04:29:23.932Z,51.01
2023-03-27T04:30:34.962Z,51.06
2023-03-27T04:31:58.493Z,51.46
2023-03-27T04:33:15.266Z,51.43
2023-03-27T04:34:19.186Z,51.62
2023-03-27T04:35:41.005Z,51.63
2023-03-27T04:36:45.184Z,51.21
2023-03-27T04:37:48.960Z,51.50
2023-03-27T04:38:53.382Z,50.54
2023-03-27T04:39:55.847Z,49.89
2023-03-27T04:40:58.030Z,49.33
2023-03-27T04:42:00.661Z,48.82
2023-03-27T04:43:02.759Z,48.65
2023-03-27T04:44:06.718Z,48.00
2023-03-27T04:45:11.333Z,47.55
2023-03-27T04:46:14.243Z,47.33
2023-03-27T04:47:17.223Z,46.83
2023-03-27T04:48:20.503Z,46.43
2023-03-27T04:49:24.436Z,46.31
2023-03-27T04:50:28.886Z,45.51
2023-03-27T04:51:33.831Z,44.58
2023-03-27T04:52:35.813Z,44.19
2023-03-27T04:53:38.257Z,43.79
2023-03-27T04:54:40.603Z,43.38
2023-03-27T04:55:43.878Z,43.14
2023-03-27T04:56:46.776Z,42.72
2023-03-27T04:57:49.305Z,42.09
2023-03-27T04:58:52.130Z,41.87
2023-03-27T04:59:54.539Z,41.48
2023-03-27T05:02:13.910Z,40.76
2023-03-27T05:03:22.366Z,40.38
2023-03-27T05:04:27.355Z,40.62
2023-03-27T05:05:37.580Z,39.40
2023-03-27T05:06:41.596Z,39.11
2023-03-27T05:07:47.169Z,39.32
2023-03-27T05:08:52.505Z,40.02
2023-03-27T05:09:56.862Z,39.59
2023-03-27T05:11:01.328Z,38.21
2023-03-27T05:12:06.346Z,37.76
2023-03-27T05:13:10.719Z,37.08
2023-03-27T05:14:13.230Z,36.36
2023-03-27T05:15:16.974Z,36.35
2023-03-27T05:16:20.983Z,36.03
2023-03-27T05:17:24.784Z,36.25
2023-03-27T05:18:28.452Z,35.59
2023-03-27T05:19:30.734Z,35.38
2023-03-27T05:20:34.834Z,35.64
2023-03-27T05:21:39.885Z,36.00
2023-03-27T05:22:43.778Z,35.97
2023-03-27T05:24:02.285Z,36.03
2023-03-27T05:25:05.253Z,36.51
2023-03-27T05:26:07.884Z,37.09
2023-03-27T05:27:14.369Z,37.72
2023-03-27T05:28:17.765Z,38.41
2023-03-27T05:29:21.666Z,38.52
2023-03-27T05:30:25.934Z,38.25
2023-03-27T05:31:29.894Z,38.13
2023-03-27T05:32:36.472Z,38.33
2023-03-27T05:33:49.798Z,38.72
2023-03-27T05:34:52.438Z,39.36
2023-03-27T05:35:56.926Z,39.35
2023-03-27T05:37:01.679Z,39.76
2023-03-27T05:38:09.540Z,40.14
2023-03-27T05:39:20.316Z,40.07
2023-03-27T05:40:26.988Z,39.90
2023-03-27T05:41:29.501Z,39.53
2023-03-27T05:42:34.646Z,39.55
2023-03-27T05:43:39.749Z,40.29
2023-03-27T05:44:48.364Z,41.20
2023-03-27T05:45:50.696Z,41.46
2023-03-27T05:46:54.852Z,41.29
2023-03-27T05:48:04.575Z,41.17
2023-03-27T05:49:16.272Z,41.54
2023-03-27T05:50:33.840Z,41.17
2023-03-27T05:51:38.188Z,41.16
2023-03-27T05:52:42.578Z,40.74
2023-03-27T05:53:45.578Z,41.02
2023-03-27T05:54:51.429Z,40.76
2023-03-27T05:56:02.962Z,41.10
2023-03-27T05:56:57.750Z,40.68
2023-03-27T05:58:00.170Z,40.75
2023-03-27T05:59:02.981Z,40.97
2023-03-27T06:00:08.461Z,40.60
2023-03-27T06:01:12.566Z,40.50
2023-03-27T06:02:16.607Z,40.37
2023-03-27T06:03:22.045Z,40.52
2023-03-27T06:04:37.397Z,40.15
2023-03-27T06:05:47.860Z,40.22
2023-03-27T06:06:50.707Z,40.43
2023-03-27T06:07:53.706Z,40.43
2023-03-27T06:08:56.805Z,40.29
2023-03-27T06:09:59.357Z,40.40
2023-03-27T06:11:14.428Z,40.55
2023-03-27T06:12:20.902Z,40.95
2023-03-27T06:13:28.184Z,41.44
2023-03-27T06:14:32.085Z,41.63
2023-03-27T06:15:44.495Z,41.90
2023-03-27T06:16:56.020Z,41.22
2023-03-27T06:19:30.273Z,40.44
2023-03-27T06:20:34.453Z,40.50
2023-03-27T06:21:39.929Z,40.46
2023-03-27T06:22:51.300Z,40.41
2023-03-27T06:23:54.918Z,40.09
2023-03-27T06:24:56.974Z,40.33
2023-03-27T06:26:00.763Z,40.50
2023-03-27T06:27:04.660Z,40.71
2023-03-27T06:28:09.444Z,40.92
2023-03-27T06:29:19.157Z,41.39
2023-03-27T06:30:24.074Z,41.68
2023-03-27T06:32:52.140Z,42.04
2023-03-27T06:33:54.250Z,42.64
2023-03-27T06:36:24.359Z,42.82
2023-03-27T06:37:26.725Z,42.91
2023-03-27T06:38:29.442Z,42.72
2023-03-27T06:39:31.771Z,42.48
2023-03-27T06:40:34.590Z,41.84
2023-03-27T06:41:36.627Z,41.95
2023-03-27T06:43:01.581Z,42.27
2023-03-27T06:44:05.937Z,42.52
2023-03-27T06:45:12.741Z,42.09
2023-03-27T06:48:03.220Z,41.75
2023-03-27T06:49:02.241Z,40.60
2023-03-27T06:50:07.037Z,40.71
2023-03-27T06:51:09.961Z,40.70
2023-03-27T06:52:14.661Z,40.64
2023-03-27T06:53:27.243Z,40.69
2023-03-27T06:54:23.390Z,41.28
2023-03-27T06:55:29.140Z,41.36
2023-03-27T06:56:31.373Z,41.34
2023-03-27T06:57:54.629Z,41.15
2023-03-27T06:58:57.110Z,40.75
2023-03-27T07:00:03.291Z,41.23
2023-03-27T07:01:10.082Z,41.21
2023-03-27T07:02:18.851Z,40.92
2023-03-27T07:03:39.261Z,41.16
2023-03-27T07:04:42.851Z,41.22
2023-03-27T07:05:47.530Z,41.03
2023-03-27T07:06:50.961Z,40.89
2023-03-27T07:07:54.503Z,41.17
2023-03-27T07:08:58.447Z,41.04
2023-03-27T07:10:00.533Z,40.57
2023-03-27T07:11:11.259Z,40.77
2023-03-27T07:12:10.928Z,40.73
2023-03-27T07:13:15.920Z,40.16
2023-03-27T07:14:18.026Z,40.60
2023-03-27T07:15:26.760Z,40.69
2023-03-27T07:16:29.142Z,40.52
2023-03-27T07:17:45.951Z,40.99
2023-03-27T07:18:41.607Z,41.26
2023-03-27T07:19:45.894Z,40.78
2023-03-27T07:20:48.412Z,40.58
2023-03-27T07:21:51.950Z,40.93
2023-03-27T07:22:56.519Z,41.35
2023-03-27T07:24:00.505Z,41.32
2023-03-27T07:25:04.958Z,40.85
2023-03-27T07:26:11.875Z,41.03
2023-03-27T07:27:19.275Z,40.91
2023-03-27T07:28:21.811Z,40.60
2023-03-27T07:29:25.765Z,40.66
2023-03-27T07:30:31.552Z,40.78
2023-03-27T07:31:54.625Z,40.94
2023-03-27T07:32:41.320Z,40.54
2023-03-27T07:33:45.474Z,40.03
2023-03-27T07:34:48.326Z,39.92
2023-03-27T07:35:56.997Z,40.01
2023-03-27T07:37:02.188Z,40.22
2023-03-27T07:38:04.942Z,40.50
2023-03-27T07:39:09.374Z,40.77
2023-03-27T07:40:12.143Z,40.57
2023-03-27T07:41:14.202Z,39.65
2023-03-27T07:42:21.032Z,39.69
2023-03-27T07:43:25.352Z,39.79
2023-03-27T07:44:28.333Z,39.68
2023-03-27T07:45:35.334Z,39.73
2023-03-27T07:46:38.506Z,40.08
2023-03-27T07:47:41.587Z,40.09
2023-03-27T07:48:43.740Z,39.95
2023-03-27T07:49:48.242Z,39.96
2023-03-27T07:50:56.096Z,39.28
2023-03-27T07:51:59.548Z,38.84
2023-03-27T07:53:03.964Z,38.72
2023-03-27T07:54:06.024Z,38.84
2023-03-27T07:55:14.774Z,38.28
2023-03-27T07:56:20.178Z,38.10
2023-03-27T07:57:23.098Z,37.92
2023-03-27T07:58:25.610Z,37.50
2023-03-27T07:59:28.914Z,37.65
2023-03-27T08:01:51.433Z,37.76
2023-03-27T08:02:57.211Z,37.15
2023-03-27T08:04:00.949Z,36.43
2023-03-27T08:05:05.871Z,36.57
2023-03-27T08:06:10.355Z,36.28
2023-03-27T08:07:12.982Z,36.15
2023-03-27T08:08:16.935Z,35.89
2023-03-27T08:09:23.845Z,36.00
2023-03-27T08:10:26.123Z,35.87
2023-03-27T08:11:33.909Z,34.96
2023-03-27T08:12:38.734Z,34.81
2023-03-27T08:13:47.508Z,34.79
2023-03-27T08:14:50.043Z,34.88
2023-03-27T08:17:20.607Z,34.76
2023-03-27T08:18:27.164Z,34.10
2023-03-27T08:19:29.289Z,34.26
2023-03-27T08:20:39.039Z,34.23
2023-03-27T08:21:41.061Z,34.25
2023-03-27T08:22:44.167Z,34.28
2023-03-27T08:25:14.516Z,34.78
2023-03-27T08:26:18.195Z,33.93
2023-03-27T08:27:22.171Z,32.63
2023-03-27T08:28:24.932Z,32.44
2023-03-27T08:29:27.550Z,32.89
2023-03-27T08:30:29.661Z,32.92
2023-03-27T08:31:33.161Z,32.73
2023-03-27T08:32:39.277Z,32.06
2023-03-27T08:33:42.538Z,31.66
2023-03-27T08:34:46.689Z,31.54
2023-03-27T08:35:50.546Z,31.58
2023-03-27T08:36:54.819Z,31.97
2023-03-27T08:37:57.521Z,31.56
2023-03-27T08:39:20.891Z,31.43
2023-03-27T08:40:28.815Z,30.76
2023-03-27T08:41:40.915Z,30.69
2023-03-27T08:42:47.399Z,30.31
2023-03-27T08:43:51.460Z,29.91
2023-03-27T08:44:53.976Z,29.92
2023-03-27T08:47:31.495Z,30.94
2023-03-27T08:48:50.087Z,30.75
2023-03-27T08:49:56.110Z,29.46
2023-03-27T08:51:02.858Z,28.32
2023-03-27T08:53:34.768Z,28.78
2023-03-27T08:54:37.896Z,27.67
2023-03-27T08:55:42.692Z,27.14
2023-03-27T08:56:48.883Z,27.52
2023-03-27T08:57:51.663Z,28.30
2023-03-27T08:58:55.641Z,27.65
2023-03-27T09:00:00.159Z,27.42
2023-03-27T09:02:53.296Z,28.26
2023-03-27T09:04:21.409Z,27.34
2023-03-27T09:05:43.224Z,27.58
2023-03-27T09:07:01.548Z,28.14
2023-03-27T09:09:45.413Z,28.88
2023-03-27T09:10:51.758Z,28.26
2023-03-27T09:12:48.713Z,27.99
2023-03-27T09:13:54.948Z,28.34
2023-03-27T09:15:10.651Z,28.34
2023-03-27T09:19:07.150Z,29.34
2023-03-27T09:20:22.365Z,29.90
2023-03-27T09:23:11.081Z,28.57
2023-03-27T09:25:46.459Z,28.14
2023-03-27T09:27:06.635Z,27.96
2023-03-27T09:28:03.170Z,28.42
2023-03-27T09:29:20.846Z,28.48
2023-03-27T09:30:29.572Z,28.81
2023-03-27T09:31:35.653Z,28.98
2023-03-27T09:32:39.684Z,29.00
2023-03-27T09:33:44.143Z,29.33
2023-03-27T09:34:47.214Z,29.63
2023-03-27T09:35:51.997Z,29.58
2023-03-27T09:37:04.723Z,29.36
2023-03-27T09:38:29.948Z,29.13
2023-03-27T09:39:33.875Z,28.94
2023-03-27T09:40:47.361Z,29.71
2023-03-27T09:42:06.777Z,29.81
2023-03-27T09:45:36.566Z,30.17
2023-03-27T09:46:45.238Z,30.49
2023-03-27T09:50:35.451Z,30.03
2023-03-27T09:51:43.273Z,29.49
2023-03-27T09:54:03.164Z,29.50
2023-03-27T09:56:39.172Z,29.89
2023-03-27T09:57:41.332Z,29.32
2023-03-27T09:58:44.700Z,29.40
2023-03-27T10:01:18.739Z,30.00
2023-03-27T10:02:27.860Z,30.04
2023-03-27T10:03:39.384Z,30.42
2023-03-27T10:04:41.972Z,30.44
2023-03-27T10:05:44.792Z,30.74
2023-03-27T10:06:50.598Z,30.64
2023-03-27T10:08:00.925Z,30.87
2023-03-27T10:09:23.520Z,30.95
2023-03-27T10:10:27.535Z,30.86
2023-03-27T10:11:42.603Z,31.17
2023-03-27T10:12:54.738Z,31.48
2023-03-27T10:14:00.604Z,31.43
2023-03-27T10:15:04.969Z,31.47
2023-03-27T10:16:09.897Z,31.99
2023-03-27T10:18:46.266Z,32.14
2023-03-27T10:19:51.962Z,32.35
2023-03-27T10:20:56.235Z,32.29
2023-03-27T10:22:02.816Z,32.28
2023-03-27T10:23:08.989Z,32.42
2023-03-27T10:24:20.727Z,32.42
2023-03-27T10:25:38.759Z,32.60
2023-03-27T10:26:49.533Z,33.16
2023-03-27T10:27:52.737Z,33.34
2023-03-27T10:29:02.359Z,33.16
2023-03-27T10:30:28.928Z,33.49
2023-03-27T10:32:50.419Z,33.47
2023-03-27T10:33:54.328Z,33.55
2023-03-27T10:35:00.427Z,33.49
2023-03-27T10:36:14.572Z,33.55
2023-03-27T10:37:28.699Z,33.61
2023-03-27T10:38:36.903Z,33.81
2023-03-27T10:39:41.303Z,34.08
2023-03-27T10:40:49.665Z,34.13
2023-03-27T10:41:53.547Z,33.96
2023-03-27T10:42:56.829Z,33.96
2023-03-27T10:43:59.030Z,34.01
2023-03-27T10:45:01.093Z,33.73
2023-03-27T10:46:05.442Z,33.76
2023-03-27T10:48:55.703Z,32.64
2023-03-27T10:50:12.405Z,32.93
2023-03-27T10:53:26.659Z,33.36
2023-03-27T10:56:07.074Z,33.59
2023-03-27T10:58:46.963Z,34.06
2023-03-27T10:59:53.975Z,34.40
2023-03-27T11:01:08.726Z,34.44
2023-03-27T11:02:20.188Z,34.72
2023-03-27T11:05:03.899Z,34.69
2023-03-27T11:06:12.418Z,34.95
2023-03-27T11:07:25.581Z,34.92
2023-03-27T11:08:37.729Z,35.03
2023-03-27T11:09:43.036Z,35.03
2023-03-27T11:10:47.141Z,34.99
2023-03-27T11:14:34.980Z,34.86
2023-03-27T11:15:40.683Z,35.10
2023-03-27T11:16:47.432Z,35.21
2023-03-27T11:18:31.002Z,34.94
2023-03-27T11:20:59.980Z,34.76
2023-03-27T11:23:32.248Z,34.91
2023-03-27T11:24:56.505Z,35.16
2023-03-27T11:25:58.525Z,34.83
2023-03-27T11:27:28.807Z,34.70
2023-03-27T11:28:42.512Z,34.68
2023-03-27T11:30:09.939Z,34.64
2023-03-27T11:31:41.938Z,34.63
2023-03-27T11:32:57.106Z,34.37
2023-03-27T11:34:02.874Z,34.56
2023-03-27T11:35:09.358Z,34.32
2023-03-27T11:36:38.106Z,34.16
2023-03-27T11:37:51.450Z,33.74
2023-03-27T11:39:11.998Z,34.11
2023-03-27T11:40:20.571Z,33.71
2023-03-27T11:41:24.863Z,33.98
2023-03-27T11:42:28.959Z,33.98
2023-03-27T11:43:32.211Z,34.23
2023-03-27T11:44:34.396Z,34.20
2023-03-27T11:45:55.374Z,34.24
2023-03-27T11:47:05.634Z,34.39
2023-03-27T11:48:28.677Z,34.37
2023-03-27T11:49:37.351Z,34.38
2023-03-27T11:50:58.559Z,34.31
2023-03-27T11:52:08.096Z,34.22
2023-03-27T11:53:14.506Z,34.18
2023-03-27T11:56:25.788Z,34.18
2023-03-27T11:57:30.712Z,34.27
2023-03-27T11:59:58.314Z,34.35
2023-03-27T12:01:04.802Z,34.23
2023-03-27T12:03:55.102Z,34.05
2023-03-27T12:05:18.382Z,33.96
2023-03-27T12:06:45.737Z,33.90
2023-03-27T12:09:54.900Z,33.93
2023-03-27T12:11:15.111Z,33.90
2023-03-27T12:12:26.718Z,34.08
2023-03-27T12:14:01.135Z,34.20
2023-03-27T12:15:21.621Z,34.24
2023-03-27T12:16:46.056Z,34.19
2023-03-27T12:18:05.283Z,34.35
2023-03-27T12:19:36.427Z,34.50
2023-03-27T12:21:07.450Z,34.75
2023-03-27T12:23:47.816Z,34.93
2023-03-27T12:26:25.052Z,34.52
2023-03-27T12:27:49.493Z,34.54
2023-03-27T12:30:43.015Z,35.09
2023-03-27T12:31:49.624Z,35.31
2023-03-27T12:33:17.147Z,35.47
2023-03-27T12:35:50.552Z,35.53
2023-03-27T12:36:53.744Z,35.59
2023-03-27T12:38:00.734Z,35.71
2023-03-27T12:40:36.497Z,35.55
2023-03-27T12:41:43.580Z,35.61
2023-03-27T12:43:24.651Z,35.31
2023-03-27T12:44:30.360Z,35.34
2023-03-27T12:46:40.559Z,35.29
2023-03-27T12:47:47.569Z,35.64
2023-03-27T12:49:01.222Z,35.69
2023-03-27T12:50:20.432Z,35.73
2023-03-27T12:51:42.372Z,35.76
2023-03-27T12:52:46.847Z,35.76
2023-03-27T12:53:55.050Z,35.58
2023-03-27T12:56:27.903Z,35.27
2023-03-27T12:57:30.357Z,34.91
2023-03-27T12:58:33.732Z,34.99
2023-03-27T12:59:58.007Z,34.84
2023-03-27T13:01:01.146Z,34.50
2023-03-27T13:02:35.892Z,34.59
2023-03-27T13:05:43.808Z,34.71
2023-03-27T13:06:54.524Z,34.61
2023-03-27T13:09:46.965Z,35.07
2023-03-27T13:11:14.274Z,34.89
2023-03-27T13:12:29.266Z,34.78
2023-03-27T13:13:37.217Z,34.83
2023-03-27T13:14:48.123Z,34.77
2023-03-27T13:15:58.933Z,34.44
2023-03-27T13:17:22.278Z,34.27
2023-03-27T13:18:46.805Z,34.23
2023-03-27T13:20:05.286Z,34.34
2023-03-27T13:21:29.983Z,34.41
2023-03-27T13:23:11.037Z,34.42
2023-03-27T13:24:28.524Z,34.45
2023-03-27T13:27:26.154Z,34.39
2023-03-27T13:28:36.974Z,34.43
2023-03-27T13:30:58.608Z,34.67
2023-03-27T13:32:26.763Z,34.51
2023-03-27T13:33:34.731Z,34.54
2023-03-27T13:34:40.367Z,34.58
2023-03-27T13:36:06.270Z,34.75
2023-03-27T13:37:14.002Z,34.74
2023-03-27T13:38:18.800Z,35.06
2023-03-27T13:39:40.873Z,35.18
2023-03-27T13:40:45.778Z,35.05
2023-03-27T13:41:56.368Z,34.79
2023-03-27T13:43:16.000Z,34.88
2023-03-27T13:44:37.768Z,34.92
2023-03-27T13:47:30.851Z,34.79
2023-03-27T13:48:34.838Z,34.73
2023-03-27T13:51:15.256Z,35.08
2023-03-27T13:52:27.609Z,34.98
2023-03-27T13:53:55.605Z,34.95
2023-03-27T13:55:32.156Z,34.91
2023-03-27T13:57:09.557Z,34.77
2023-03-27T13:58:20.661Z,34.43
2023-03-27T13:59:27.906Z,34.52
2023-03-27T14:00:53.226Z,34.37
2023-03-27T14:02:02.584Z,34.45
2023-03-27T14:04:57.120Z,34.39
2023-03-27T14:06:25.698Z,34.33
2023-03-27T14:08:05.800Z,34.29
2023-03-27T14:09:30.385Z,34.49
2023-03-27T14:11:04.501Z,34.41
2023-03-27T14:13:49.581Z,34.36
2023-03-27T14:15:24.898Z,34.39
2023-03-27T14:18:13.379Z,34.38
2023-03-27T14:19:37.625Z,34.14
2023-03-27T14:20:45.847Z,34.30
2023-03-27T14:24:43.243Z,34.52
2023-03-27T14:25:51.236Z,34.54
2023-03-27T14:27:01.592Z,34.76
2023-03-27T14:28:05.636Z,34.66
2023-03-27T14:29:08.668Z,34.50
2023-03-27T14:30:16.805Z,34.67
2023-03-27T14:31:23.094Z,34.61
2023-03-27T14:32:30.247Z,34.59
2023-03-27T14:33:32.907Z,34.85
2023-03-27T14:34:47.195Z,34.97
2023-03-27T14:35:58.986Z,35.01
2023-03-27T14:38:37.844Z,34.65
2023-03-27T14:39:41.254Z,34.58
2023-03-27T14:40:46.057Z,34.45
2023-03-27T14:41:54.248Z,34.46
2023-03-27T14:42:58.153Z,34.63
2023-03-27T14:44:00.139Z,34.79
2023-03-27T14:45:12.296Z,34.74
2023-03-27T14:46:14.607Z,34.67
2023-03-27T14:47:17.068Z,34.67
2023-03-27T14:49:39.921Z,34.76
2023-03-27T14:50:44.134Z,34.77
2023-03-27T14:51:47.108Z,34.94
2023-03-27T14:52:53.212Z,35.04
2023-03-27T14:53:57.406Z,34.78
2023-03-27T14:55:07.332Z,34.62
2023-03-27T14:56:35.626Z,34.48
2023-03-27T14:57:58.801Z,34.67
2023-03-27T15:00:18.291Z,34.77
2023-03-27T15:01:24.851Z,34.78
2023-03-27T15:02:30.823Z,34.67
2023-03-27T15:03:34.837Z,34.57
2023-03-27T15:04:38.363Z,34.50
2023-03-27T15:05:54.327Z,34.57
2023-03-27T15:07:20.287Z,34.54
2023-03-27T15:08:27.224Z,34.52
2023-03-27T15:09:43.420Z,34.35
2023-03-27T15:11:08.172Z,34.50
2023-03-27T15:12:12.177Z,34.66
2023-03-27T15:13:14.661Z,34.73
2023-03-27T15:14:21.133Z,34.86
2023-03-27T15:15:34.990Z,34.86
2023-03-27T15:16:37.801Z,34.94
2023-03-27T15:17:40.015Z,35.05
2023-03-27T15:18:52.121Z,34.95
2023-03-27T15:20:02.814Z,34.92
2023-03-27T15:21:09.262Z,34.84
2023-03-27T15:22:14.907Z,34.88
2023-03-27T15:23:21.113Z,34.97
2023-03-27T15:24:30.513Z,35.03
2023-03-27T15:26:50.384Z,35.38
2023-03-27T15:27:54.937Z,35.42
2023-03-27T15:29:03.536Z,35.50
2023-03-27T15:30:31.127Z,35.56
2023-03-27T15:31:34.006Z,35.58
2023-03-27T15:32:40.846Z,35.50
2023-03-27T15:34:58.353Z,35.47
2023-03-27T15:36:03.557Z,35.49
2023-03-27T15:37:10.845Z,35.54
2023-03-27T15:38:14.795Z,35.74
2023-03-27T15:39:20.587Z,35.72
2023-03-27T15:40:29.243Z,35.72
2023-03-27T15:41:36.190Z,35.68
2023-03-27T15:44:07.529Z,35.70
2023-03-27T15:45:11.014Z,35.83
2023-03-27T15:46:18.504Z,35.79
2023-03-27T15:47:24.888Z,35.78
2023-03-27T15:48:34.958Z,35.67
2023-03-27T15:49:38.021Z,35.63
2023-03-27T15:50:42.190Z,35.83
2023-03-27T15:51:44.160Z,35.72
2023-03-27T15:53:59.528Z,35.60
2023-03-27T15:55:02.500Z,35.75
2023-03-27T15:56:28.821Z,35.95
2023-03-27T15:57:31.587Z,36.00
2023-03-27T15:58:49.881Z,35.98
2023-03-27T15:59:53.701Z,36.13
2023-03-27T16:01:00.845Z,36.17
2023-03-27T16:02:09.752Z,36.04
2023-03-27T16:04:40.027Z,36.18
2023-03-27T16:05:42.707Z,36.07
2023-03-27T16:06:46.749Z,36.06
2023-03-27T16:07:48.804Z,35.94
2023-03-27T16:08:50.860Z,36.07
2023-03-27T16:10:00.216Z,36.08
2023-03-27T16:11:03.181Z,36.14
2023-03-27T16:12:05.396Z,36.22
2023-03-27T16:13:12.280Z,36.30
2023-03-27T16:14:38.259Z,36.39
2023-03-27T16:15:40.600Z,36.41
2023-03-27T16:16:42.781Z,36.38
2023-03-27T16:17:46.772Z,36.46
2023-03-27T16:18:49.240Z,36.54
2023-03-27T16:19:59.441Z,36.45
2023-03-27T16:22:28.817Z,36.48
2023-03-27T16:23:31.163Z,36.59
2023-03-27T16:24:33.128Z,36.50
2023-03-27T16:25:36.167Z,36.55
2023-03-27T16:26:38.345Z,36.52
2023-03-27T16:29:17.573Z,36.50
2023-03-27T16:30:29.384Z,36.61
2023-03-27T16:31:32.068Z,36.48
2023-03-27T16:32:34.723Z,36.50
2023-03-27T16:33:36.810Z,36.41
2023-03-27T16:34:40.241Z,36.47
2023-03-27T16:35:42.430Z,36.51
2023-03-27T16:36:45.146Z,36.60
2023-03-27T16:37:47.206Z,36.51
2023-03-27T16:38:49.182Z,36.57
2023-03-27T16:39:51.662Z,36.60
2023-03-27T16:40:54.084Z,36.59